Time;durP1;ratioP1;P1;durP2;ratioP2;P2;SDS_P1;SDS_P2;PMS_P1;PMS_P2;Temp;Humidity;BMP_temperature;BMP_pressure;BME280_temperature;BME280_humidity;BME280_pressure;Samples;Min_cycle;Max_cycle;Signal;HPM_P1;HPM_P2
2023/07/23 00:02:04;;;;;;;;;;;20.10;68.10;;;;;;5111464;28;19912;-68
2023/07/23 00:04:30;;;;;;;;;;;20.10;68.10;;;;;;5100755;28;19919;-68
2023/07/23 00:06:55;;;;;;;;;;;20.10;68.00;;;;;;5072213;28;19918;-68
2023/07/23 00:09:21;;;;;;;;;;;20.10;68.10;;;;;;5072445;28;19915;-67
2023/07/23 00:11:46;;;;;;;;;;;20.00;68.00;;;;;;5095314;28;19919;-68
2023/07/23 00:14:12;;;;;;;;;;;20.00;68.40;;;;;;5077943;28;20384;-68
2023/07/23 00:16:37;;;;;;;;;;;20.00;68.40;;;;;;5090333;28;19915;-68
2023/07/23 00:19:04;;;;;;;;;;;20.00;68.60;;;;;;5090462;28;19923;-68
2023/07/23 00:21:30;;;;;;;;;;;20.00;68.50;;;;;;5090484;28;20448;-68
2023/07/23 00:23:56;;;;;;;;;;;20.00;68.40;;;;;;5086213;28;20011;-68
2023/07/23 00:26:21;;;;;;;;;;;20.00;68.60;;;;;;5069903;28;19991;-68
2023/07/23 00:28:47;;;;;;;;;;;20.00;68.70;;;;;;5075038;28;20327;-68
2023/07/23 00:31:12;;;;;;;;;;;19.90;68.60;;;;;;5090679;28;19923;-68
2023/07/23 00:33:38;;;;;;;;;;;19.90;68.70;;;;;;5088822;28;19908;-68
2023/07/23 00:36:03;;;;;;;;;;;19.90;68.90;;;;;;5078873;28;19918;-68
2023/07/23 00:38:29;;;;;;;;;;;19.90;69.00;;;;;;5109704;28;19911;-68
2023/07/23 00:40:56;;;;;;;;;;;19.90;69.00;;;;;;5109110;28;20307;-68
2023/07/23 00:43:22;;;;;;;;;;;19.90;68.90;;;;;;5092465;28;20345;-68
2023/07/23 00:45:47;;;;;;;;;;;19.80;69.00;;;;;;5091099;28;19955;-67
2023/07/23 00:48:13;;;;;;;;;;;19.80;69.20;;;;;;5109620;28;20348;-67
2023/07/23 00:50:39;;;;;;;;;;;19.80;69.30;;;;;;5092177;28;19938;-68
2023/07/23 00:53:04;;;;;;;;;;;19.80;69.40;;;;;;5110122;28;20065;-68
2023/07/23 00:55:30;;;;;;;;;;;19.80;69.30;;;;;;5092679;28;19950;-68
2023/07/23 00:57:55;;;;;;;;;;;19.80;69.50;;;;;;5089753;28;19908;-68
2023/07/23 01:00:21;;;;;;;;;;;19.80;69.60;;;;;;5089377;28;19912;-68
2023/07/23 01:02:47;;;;;;;;;;;19.70;69.60;;;;;;5102426;28;20746;-68
2023/07/23 01:05:13;;;;;;;;;;;19.70;69.40;;;;;;5093693;28;19942;-68
2023/07/23 01:07:39;;;;;;;;;;;19.70;69.70;;;;;;5089538;28;20300;-68
2023/07/23 01:10:05;;;;;;;;;;;19.70;69.60;;;;;;5089229;28;19917;-68
2023/07/23 01:12:31;;;;;;;;;;;19.70;69.70;;;;;;5079711;28;19911;-68
2023/07/23 01:14:57;;;;;;;;;;;19.70;69.90;;;;;;5068902;28;19917;-68
2023/07/23 01:17:23;;;;;;;;;;;19.60;69.80;;;;;;5072526;28;20300;-68
2023/07/23 01:19:59;;;;;;;;;;;19.60;69.90;;;;;;5089202;28;19912;-68
2023/07/23 01:22:25;;;;;;;;;;;19.60;69.90;;;;;;5090291;28;19922;-68
2023/07/23 01:24:50;;;;;;;;;;;19.60;70.00;;;;;;5077495;28;19921;-68
2023/07/23 01:27:16;;;;;;;;;;;19.60;70.20;;;;;;5068664;28;19916;-68
2023/07/23 01:29:41;;;;;;;;;;;19.60;70.20;;;;;;5068430;28;19923;-67
2023/07/23 01:32:07;;;;;;;;;;;19.60;70.30;;;;;;5068899;28;20007;-68
2023/07/23 01:34:32;;;;;;;;;;;19.60;70.30;;;;;;5082215;28;19942;-68
2023/07/23 01:36:58;;;;;;;;;;;19.60;70.40;;;;;;5088974;28;19958;-68
2023/07/23 01:39:24;;;;;;;;;;;19.50;70.30;;;;;;5088530;28;20503;-67
2023/07/23 01:41:49;;;;;;;;;;;19.60;70.40;;;;;;5094057;28;19943;-68
2023/07/23 01:44:15;;;;;;;;;;;19.50;70.50;;;;;;5084816;28;19954;-68
2023/07/23 01:46:40;;;;;;;;;;;19.50;70.60;;;;;;5088390;28;19912;-68
2023/07/23 01:49:06;;;;;;;;;;;19.50;71.30;;;;;;5088747;28;20505;-68
2023/07/23 01:51:31;;;;;;;;;;;19.50;71.30;;;;;;5090029;28;19912;-68
2023/07/23 01:53:57;;;;;;;;;;;19.50;70.70;;;;;;5084904;28;19951;-67
2023/07/23 01:56:22;;;;;;;;;;;19.50;70.90;;;;;;5068134;28;19919;-68
2023/07/23 01:58:48;;;;;;;;;;;19.50;70.80;;;;;;5067296;28;19908;-68
2023/07/23 02:01:14;;;;;;;;;;;19.40;70.70;;;;;;5068659;28;19947;-68
2023/07/23 02:03:39;;;;;;;;;;;19.40;70.60;;;;;;5071406;28;20006;-67
2023/07/23 02:06:04;;;;;;;;;;;19.40;70.70;;;;;;5089579;28;19916;-68
2023/07/23 02:08:30;;;;;;;;;;;19.40;70.50;;;;;;5088684;28;19958;-67
2023/07/23 02:11:00;;;;;;;;;;;19.40;70.90;;;;;;5088395;28;20288;-67
2023/07/23 02:13:25;;;;;;;;;;;19.40;70.90;;;;;;5089344;28;19935;-68
2023/07/23 02:15:51;;;;;;;;;;;19.40;71.00;;;;;;5067682;28;20415;-67
2023/07/23 02:18:17;;;;;;;;;;;19.40;70.90;;;;;;5068548;28;19924;-68
2023/07/23 02:20:42;;;;;;;;;;;19.40;71.10;;;;;;5068266;28;20397;-68
2023/07/23 02:23:08;;;;;;;;;;;19.30;71.10;;;;;;5083275;28;19912;-68
2023/07/23 02:25:37;;;;;;;;;;;19.30;71.10;;;;;;5070431;28;19916;-68
2023/07/23 02:28:02;;;;;;;;;;;19.30;70.90;;;;;;5069894;28;20293;-68
2023/07/23 02:30:28;;;;;;;;;;;19.30;71.20;;;;;;5085941;28;19920;-68
2023/07/23 02:32:53;;;;;;;;;;;19.30;71.10;;;;;;5088502;28;19908;-68
2023/07/23 02:35:19;;;;;;;;;;;19.20;71.10;;;;;;5088035;28;19939;-68
2023/07/23 02:37:44;;;;;;;;;;;19.30;71.30;;;;;;5088931;28;19919;-68
2023/07/23 02:40:10;;;;;;;;;;;19.20;71.10;;;;;;5093908;28;19912;-68
2023/07/23 02:42:36;;;;;;;;;;;19.20;71.30;;;;;;5094110;28;19917;-68
2023/07/23 02:45:01;;;;;;;;;;;19.20;71.40;;;;;;5085467;28;19995;-68
2023/07/23 02:47:27;;;;;;;;;;;19.20;71.50;;;;;;5088194;28;19916;-68
2023/07/23 02:49:52;;;;;;;;;;;19.20;71.50;;;;;;5087947;28;19942;-68
2023/07/23 02:52:18;;;;;;;;;;;19.20;71.50;;;;;;5069915;28;19948;-68
2023/07/23 02:54:43;;;;;;;;;;;19.20;72.30;;;;;;5088862;28;19917;-68
2023/07/23 02:57:09;;;;;;;;;;;19.20;71.50;;;;;;5087911;28;20261;-68
2023/07/23 02:59:34;;;;;;;;;;;19.20;71.50;;;;;;5069738;28;19912;-68
2023/07/23 03:02:00;;;;;;;;;;;19.10;72.00;;;;;;5088158;28;19916;-68
2023/07/23 03:04:26;;;;;;;;;;;19.10;71.50;;;;;;5087863;28;20396;-68
2023/07/23 03:06:52;;;;;;;;;;;19.10;71.60;;;;;;5087615;28;20032;-68
2023/07/23 03:09:18;;;;;;;;;;;19.10;71.40;;;;;;5087567;28;19947;-68
2023/07/23 03:11:43;;;;;;;;;;;19.10;71.60;;;;;;5096913;28;19967;-68
2023/07/23 03:14:09;;;;;;;;;;;19.10;71.70;;;;;;5076369;28;19948;-68
2023/07/23 03:16:34;;;;;;;;;;;19.10;71.60;;;;;;5071299;28;20003;-68
2023/07/23 03:19:00;;;;;;;;;;;19.10;71.60;;;;;;5071430;28;19912;-68
2023/07/23 03:21:25;;;;;;;;;;;19.10;71.60;;;;;;5071360;28;19913;-68
2023/07/23 03:23:51;;;;;;;;;;;19.10;71.60;;;;;;5055936;28;19912;-67
2023/07/23 03:26:16;;;;;;;;;;;19.10;71.60;;;;;;5072712;28;19924;-68
2023/07/23 03:28:42;;;;;;;;;;;19.10;71.60;;;;;;5092356;28;20023;-68
2023/07/23 03:31:07;;;;;;;;;;;19.00;71.50;;;;;;5091425;28;19918;-68
2023/07/23 03:33:33;;;;;;;;;;;19.00;71.60;;;;;;5091212;28;19947;-68
2023/07/23 03:35:58;;;;;;;;;;;19.00;71.50;;;;;;5091169;28;19912;-68
2023/07/23 03:38:24;;;;;;;;;;;19.00;71.50;;;;;;5091382;28;19919;-68
2023/07/23 03:40:49;;;;;;;;;;;19.00;71.40;;;;;;5091038;28;20418;-68
2023/07/23 03:43:15;;;;;;;;;;;19.00;71.50;;;;;;5099391;28;19915;-68
2023/07/23 03:45:40;;;;;;;;;;;19.00;71.50;;;;;;5090209;28;19915;-68
2023/07/23 03:48:07;;;;;;;;;;;19.00;71.30;;;;;;5091224;28;19919;-68
2023/07/23 03:50:33;;;;;;;;;;;19.00;71.60;;;;;;5090703;28;19912;-68
2023/07/23 03:52:58;;;;;;;;;;;19.00;71.50;;;;;;5091234;28;19919;-68
2023/07/23 03:55:24;;;;;;;;;;;19.00;71.50;;;;;;5090637;28;19912;-68
2023/07/23 03:57:50;;;;;;;;;;;19.00;71.50;;;;;;5083244;28;20354;-68
2023/07/23 04:00:15;;;;;;;;;;;19.00;71.30;;;;;;5082298;28;19923;-68
2023/07/23 04:02:42;;;;;;;;;;;18.90;71.40;;;;;;5089638;28;19952;-68
2023/07/23 04:05:07;;;;;;;;;;;18.90;71.40;;;;;;5088631;28;19916;-68
2023/07/23 04:07:34;;;;;;;;;;;18.90;71.30;;;;;;5052173;28;19909;-68
2023/07/23 04:09:59;;;;;;;;;;;18.90;71.30;;;;;;5070236;28;19917;-68
2023/07/23 04:12:25;;;;;;;;;;;18.90;71.40;;;;;;5089658;28;20367;-68
2023/07/23 04:14:51;;;;;;;;;;;18.90;71.10;;;;;;5090219;28;19915;-68
2023/07/23 04:17:16;;;;;;;;;;;18.90;71.30;;;;;;5090090;28;19916;-68
2023/07/23 04:19:42;;;;;;;;;;;18.90;71.10;;;;;;5069723;28;19914;-68
2023/07/23 04:22:07;;;;;;;;;;;18.90;71.20;;;;;;5069023;28;19913;-68
2023/07/23 04:24:33;;;;;;;;;;;18.90;71.10;;;;;;5069734;28;19920;-68
2023/07/23 04:26:58;;;;;;;;;;;18.90;71.10;;;;;;5070339;28;19919;-68
2023/07/23 04:29:24;;;;;;;;;;;18.90;71.10;;;;;;5089975;28;19916;-68
2023/07/23 04:31:49;;;;;;;;;;;18.90;70.90;;;;;;5090553;28;19912;-68
2023/07/23 04:34:15;;;;;;;;;;;18.90;70.90;;;;;;5090345;28;20284;-68
2023/07/23 04:36:40;;;;;;;;;;;18.90;71.00;;;;;;5089648;28;19947;-68
2023/07/23 04:39:06;;;;;;;;;;;18.90;71.00;;;;;;5089609;28;19915;-68
2023/07/23 04:41:31;;;;;;;;;;;18.90;71.00;;;;;;5092108;28;19912;-68
2023/07/23 04:43:57;;;;;;;;;;;19.00;70.80;;;;;;5078969;28;20446;-68
2023/07/23 04:46:23;;;;;;;;;;;18.90;70.80;;;;;;5069489;28;19912;-68
2023/07/23 04:48:49;;;;;;;;;;;18.90;70.50;;;;;;5096180;28;19973;-68
2023/07/23 04:51:14;;;;;;;;;;;18.90;70.70;;;;;;5109231;28;20570;-68
2023/07/23 04:53:40;;;;;;;;;;;18.90;70.80;;;;;;5105711;28;20253;-68
2023/07/23 04:56:05;;;;;;;;;;;18.90;70.70;;;;;;5087104;28;20414;-68
2023/07/23 04:58:31;;;;;;;;;;;19.00;70.80;;;;;;5089517;28;19913;-68
2023/07/23 05:00:58;;;;;;;;;;;19.00;70.20;;;;;;5089320;28;19946;-68
2023/07/23 05:03:24;;;;;;;;;;;18.90;70.30;;;;;;5089130;28;20422;-68
2023/07/23 05:05:50;;;;;;;;;;;18.90;70.30;;;;;;5091117;28;19923;-68
2023/07/23 05:08:16;;;;;;;;;;;19.00;70.60;;;;;;5070835;28;19940;-68
2023/07/23 05:10:41;;;;;;;;;;;19.00;70.50;;;;;;5089135;28;19949;-68
2023/07/23 05:13:07;;;;;;;;;;;19.00;70.30;;;;;;5105097;28;19922;-68
2023/07/23 05:15:32;;;;;;;;;;;19.10;70.20;;;;;;5108972;28;19912;-68
2023/07/23 05:17:58;;;;;;;;;;;19.10;70.30;;;;;;5109633;28;19908;-68
2023/07/23 05:20:23;;;;;;;;;;;19.10;70.30;;;;;;5088916;28;20373;-68
2023/07/23 05:22:49;;;;;;;;;;;19.10;70.20;;;;;;5072108;28;19966;-69
2023/07/23 05:25:15;;;;;;;;;;;19.10;70.30;;;;;;5065503;28;20020;-68
2023/07/23 05:27:40;;;;;;;;;;;19.10;70.10;;;;;;5074622;28;19912;-68
2023/07/23 05:30:06;;;;;;;;;;;19.10;70.10;;;;;;5085846;28;20468;-68
2023/07/23 05:32:32;;;;;;;;;;;19.10;70.20;;;;;;5086741;28;19912;-68
2023/07/23 05:34:57;;;;;;;;;;;19.10;70.10;;;;;;5086498;28;19943;-68
2023/07/23 05:37:23;;;;;;;;;;;19.10;70.00;;;;;;5077030;28;20356;-68
2023/07/23 05:39:49;;;;;;;;;;;19.10;69.80;;;;;;5087041;28;20557;-68
2023/07/23 05:42:15;;;;;;;;;;;19.20;70.00;;;;;;5079313;28;19916;-68
2023/07/23 05:44:40;;;;;;;;;;;19.20;69.90;;;;;;5069987;28;19912;-68
2023/07/23 05:47:06;;;;;;;;;;;19.20;69.70;;;;;;5086504;28;19912;-68
2023/07/23 05:49:31;;;;;;;;;;;19.20;69.70;;;;;;5086015;28;20432;-68
2023/07/23 05:52:00;;;;;;;;;;;19.20;69.80;;;;;;5077043;28;19919;-68
2023/07/23 05:54:26;;;;;;;;;;;19.20;69.80;;;;;;5070975;28;20301;-68
2023/07/23 05:56:52;;;;;;;;;;;19.20;69.50;;;;;;5086178;28;19974;-68
2023/07/23 05:59:17;;;;;;;;;;;19.20;69.50;;;;;;5085806;28;19934;-68
2023/07/23 06:01:43;;;;;;;;;;;19.30;69.60;;;;;;5086582;28;20018;-68
2023/07/23 06:04:08;;;;;;;;;;;19.30;69.60;;;;;;5085887;28;20003;-68
2023/07/23 06:06:34;;;;;;;;;;;19.20;69.50;;;;;;5087412;28;20407;-68
2023/07/23 06:08:59;;;;;;;;;;;19.30;69.50;;;;;;5084647;28;19923;-68
2023/07/23 06:11:25;;;;;;;;;;;19.30;69.60;;;;;;5095147;28;19920;-68
2023/07/23 06:13:50;;;;;;;;;;;19.30;69.40;;;;;;5085461;28;19912;-68
2023/07/23 06:16:16;;;;;;;;;;;19.40;69.50;;;;;;5078174;28;19917;-68
2023/07/23 06:18:41;;;;;;;;;;;19.40;69.40;;;;;;5084072;28;20330;-68
2023/07/23 06:21:07;;;;;;;;;;;19.40;69.30;;;;;;5088411;28;19973;-68
2023/07/23 06:23:35;;;;;;;;;;;19.40;69.30;;;;;;5084236;28;19941;-68
2023/07/23 06:26:01;;;;;;;;;;;19.40;69.30;;;;;;5070482;28;19939;-69
2023/07/23 06:28:26;;;;;;;;;;;19.50;69.30;;;;;;5083776;28;20360;-69
2023/07/23 06:30:52;;;;;;;;;;;19.50;69.20;;;;;;5088179;28;20006;-68
2023/07/23 06:33:18;;;;;;;;;;;19.50;69.10;;;;;;5083751;28;19954;-68
2023/07/23 06:35:44;;;;;;;;;;;19.60;69.20;;;;;;5074085;28;19912;-69
2023/07/23 06:38:09;;;;;;;;;;;19.60;69.00;;;;;;5083710;28;19939;-68
2023/07/23 06:40:35;;;;;;;;;;;19.60;68.90;;;;;;5088135;28;19912;-68
2023/07/23 06:43:01;;;;;;;;;;;19.70;69.00;;;;;;5091278;28;20396;-68
2023/07/23 06:45:26;;;;;;;;;;;19.70;68.80;;;;;;5089060;28;19916;-68
2023/07/23 06:47:52;;;;;;;;;;;19.70;68.90;;;;;;5070839;28;20284;-68
2023/07/23 06:50:18;;;;;;;;;;;19.80;68.80;;;;;;5091971;28;20361;-69
2023/07/23 06:52:44;;;;;;;;;;;19.80;68.80;;;;;;5089781;28;19908;-68
2023/07/23 06:55:09;;;;;;;;;;;19.80;68.80;;;;;;5089181;28;20335;-69
2023/07/23 06:57:35;;;;;;;;;;;19.90;68.80;;;;;;5089241;28;19916;-69
2023/07/23 07:00:00;;;;;;;;;;;19.90;68.70;;;;;;5089124;28;19917;-68
2023/07/23 07:02:26;;;;;;;;;;;19.90;68.70;;;;;;5089922;28;19915;-68
2023/07/23 07:04:51;;;;;;;;;;;19.90;68.60;;;;;;5089328;28;19912;-68
2023/07/23 07:07:17;;;;;;;;;;;20.00;68.70;;;;;;5089364;28;19916;-68
2023/07/23 07:09:42;;;;;;;;;;;20.00;68.60;;;;;;5091762;28;20322;-69
2023/07/23 07:12:08;;;;;;;;;;;20.00;68.60;;;;;;5092701;28;20000;-69
2023/07/23 07:14:33;;;;;;;;;;;20.00;68.60;;;;;;5090152;28;19912;-68
2023/07/23 07:16:59;;;;;;;;;;;20.00;68.50;;;;;;5089439;28;19943;-69
2023/07/23 07:19:24;;;;;;;;;;;20.00;68.40;;;;;;5087019;28;19919;-69
2023/07/23 07:21:50;;;;;;;;;;;20.10;69.20;;;;;;5089496;28;20330;-68
2023/07/23 07:24:16;;;;;;;;;;;20.10;68.30;;;;;;5092678;28;19916;-69
2023/07/23 07:26:42;;;;;;;;;;;20.20;68.40;;;;;;5091087;28;19912;-69
2023/07/23 07:29:07;;;;;;;;;;;20.20;68.40;;;;;;5097408;28;19923;-68
2023/07/23 07:31:33;;;;;;;;;;;20.20;68.30;;;;;;5090352;28;19934;-69
2023/07/23 07:33:59;;;;;;;;;;;20.20;68.40;;;;;;5090671;28;20379;-68
2023/07/23 07:36:24;;;;;;;;;;;20.20;68.30;;;;;;5090036;28;20670;-68
2023/07/23 07:38:50;;;;;;;;;;;20.30;68.20;;;;;;5090642;28;19948;-69
2023/07/23 07:41:15;;;;;;;;;;;20.40;68.30;;;;;;5090406;28;19919;-68
2023/07/23 07:43:41;;;;;;;;;;;20.40;68.20;;;;;;5078848;28;20361;-68
2023/07/23 07:46:08;;;;;;;;;;;20.40;68.20;;;;;;5089487;28;19919;-68
2023/07/23 07:48:35;;;;;;;;;;;20.40;68.30;;;;;;5090355;28;19916;-69
2023/07/23 07:51:01;;;;;;;;;;;20.40;68.30;;;;;;5090341;28;19912;-68
2023/07/23 07:53:27;;;;;;;;;;;20.40;68.30;;;;;;5090117;28;19916;-69
2023/07/23 07:55:52;;;;;;;;;;;20.30;68.40;;;;;;5080680;28;19920;-69
2023/07/23 07:58:24;;;;;;;;;;;20.30;68.50;;;;;;5070290;28;19916;-68
2023/07/23 08:01:00;;;;;;;;;;;20.40;68.60;;;;;;5069560;28;20011;-68
2023/07/23 08:03:26;;;;;;;;;;;20.40;68.50;;;;;;5092028;28;20014;-68
2023/07/23 08:05:52;;;;;;;;;;;20.30;68.50;;;;;;5089522;28;19940;-68
2023/07/23 08:08:19;;;;;;;;;;;20.30;68.60;;;;;;5089970;28;19944;-68
2023/07/23 08:10:45;;;;;;;;;;;20.40;68.80;;;;;;5090616;28;19912;-69
2023/07/23 08:13:13;;;;;;;;;;;20.40;68.80;;;;;;5099355;28;19919;-69
2023/07/23 08:15:39;;;;;;;;;;;20.40;68.80;;;;;;5089444;28;19915;-69
2023/07/23 08:18:05;;;;;;;;;;;20.30;68.70;;;;;;5089771;28;19920;-68
2023/07/23 08:20:32;;;;;;;;;;;20.30;68.80;;;;;;5089642;28;20527;-69
2023/07/23 08:22:58;;;;;;;;;;;20.40;68.70;;;;;;5089784;28;19912;-68
2023/07/23 08:25:24;;;;;;;;;;;20.40;68.70;;;;;;5079361;28;20285;-68
2023/07/23 08:27:50;;;;;;;;;;;20.40;68.70;;;;;;5097699;28;19933;-68
2023/07/23 08:30:16;;;;;;;;;;;20.40;68.70;;;;;;5109669;28;20486;-68
2023/07/23 08:32:42;;;;;;;;;;;20.40;68.70;;;;;;5104957;28;19912;-68
2023/07/23 08:35:11;;;;;;;;;;;20.40;68.70;;;;;;5089654;28;19978;-69
2023/07/23 08:37:36;;;;;;;;;;;20.50;68.70;;;;;;5089252;28;19936;-69
2023/07/23 08:40:02;;;;;;;;;;;20.50;68.80;;;;;;5089337;28;20351;-69
2023/07/23 08:42:42;;;;;;;;;;;20.50;68.60;;;;;;5093370;28;19916;-68
2023/07/23 08:45:26;;;;;;;;;;;20.60;68.60;;;;;;5078089;28;19965;-68
2023/07/23 08:47:58;;;;;;;;;;;20.60;68.50;;;;;;5109723;28;19911;-68
2023/07/23 08:50:24;;;;;;;;;;;20.70;68.50;;;;;;5107859;28;19916;-68
2023/07/23 08:52:50;;;;;;;;;;;20.70;68.30;;;;;;5089316;28;19918;-69
2023/07/23 08:55:16;;;;;;;;;;;20.70;68.50;;;;;;5073944;28;19935;-68
2023/07/23 08:57:41;;;;;;;;;;;20.80;68.40;;;;;;5083874;28;20426;-68
2023/07/23 09:00:08;;;;;;;;;;;20.80;68.50;;;;;;5088981;28;19912;-68
2023/07/23 09:02:34;;;;;;;;;;;20.80;68.60;;;;;;5086986;28;20324;-68
2023/07/23 09:04:59;;;;;;;;;;;20.80;68.50;;;;;;5085346;28;19919;-68
2023/07/23 09:07:25;;;;;;;;;;;20.80;68.90;;;;;;5088037;28;19912;-68
2023/07/23 09:09:51;;;;;;;;;;;20.80;68.60;;;;;;5088450;28;19912;-68
2023/07/23 09:12:16;;;;;;;;;;;20.90;68.70;;;;;;5090381;28;19994;-68
2023/07/23 09:14:42;;;;;;;;;;;20.90;68.80;;;;;;5067559;28;19912;-68
2023/07/23 09:17:18;;;;;;;;;;;20.90;69.40;;;;;;5068207;28;19924;-68
2023/07/23 09:19:44;;;;;;;;;;;20.80;69.30;;;;;;5068494;28;19944;-68
2023/07/23 09:22:09;;;;;;;;;;;20.90;69.30;;;;;;5068174;28;19967;-68
2023/07/23 09:24:35;;;;;;;;;;;20.90;69.50;;;;;;5077263;28;19955;-68
2023/07/23 09:27:02;;;;;;;;;;;20.80;69.30;;;;;;5087941;28;19991;-68
2023/07/23 09:29:35;;;;;;;;;;;20.90;69.30;;;;;;5088224;28;20595;-68
2023/07/23 09:32:00;;;;;;;;;;;20.80;70.20;;;;;;5070544;28;19935;-68
2023/07/23 09:34:26;;;;;;;;;;;20.80;69.80;;;;;;5088302;28;19912;-68
2023/07/23 09:36:53;;;;;;;;;;;20.80;70.00;;;;;;5088077;28;19919;-68
2023/07/23 09:39:19;;;;;;;;;;;20.80;70.10;;;;;;5087896;28;19991;-68
2023/07/23 09:41:45;;;;;;;;;;;20.70;70.30;;;;;;5074185;28;20329;-68
2023/07/23 09:44:11;;;;;;;;;;;20.70;70.10;;;;;;5084633;28;19973;-68
2023/07/23 09:46:38;;;;;;;;;;;20.70;70.30;;;;;;5087510;28;19947;-68
2023/07/23 09:49:04;;;;;;;;;;;20.70;70.50;;;;;;5088368;28;19919;-68
2023/07/23 09:51:33;;;;;;;;;;;20.70;70.50;;;;;;5087913;28;19912;-68
2023/07/23 09:54:02;;;;;;;;;;;20.70;70.90;;;;;;5088010;28;20424;-68
2023/07/23 09:56:28;;;;;;;;;;;20.70;70.70;;;;;;5087524;28;19978;-68
2023/07/23 09:58:53;;;;;;;;;;;20.80;71.00;;;;;;5088131;28;19930;-68
2023/07/23 10:01:20;;;;;;;;;;;20.80;70.80;;;;;;5087945;28;20008;-68
2023/07/23 10:03:46;;;;;;;;;;;20.80;70.80;;;;;;5088162;28;20251;-68
2023/07/23 10:06:12;;;;;;;;;;;20.80;71.00;;;;;;5087632;28;19955;-69
2023/07/23 10:08:40;;;;;;;;;;;20.90;71.10;;;;;;5087704;28;20639;-69
2023/07/23 10:11:05;;;;;;;;;;;20.90;71.30;;;;;;5087762;28;19969;-68
2023/07/23 10:13:31;;;;;;;;;;;20.90;71.10;;;;;;5097267;28;20357;-68
2023/07/23 10:15:57;;;;;;;;;;;20.90;71.30;;;;;;5087436;28;19923;-68
2023/07/23 10:18:24;;;;;;;;;;;20.90;71.50;;;;;;5088263;28;19947;-68
2023/07/23 10:20:50;;;;;;;;;;;20.90;71.80;;;;;;5090009;28;20291;-68
2023/07/23 10:23:16;;;;;;;;;;;20.90;71.60;;;;;;5092148;28;19909;-68
2023/07/23 10:25:41;;;;;;;;;;;20.90;71.80;;;;;;5091552;28;20512;-68
2023/07/23 10:28:08;;;;;;;;;;;20.90;71.90;;;;;;5091926;28;20002;-68
2023/07/23 10:30:34;;;;;;;;;;;20.90;71.90;;;;;;5091897;28;19916;-69
2023/07/23 10:33:09;;;;;;;;;;;20.90;71.80;;;;;;5091661;28;19919;-69
2023/07/23 10:35:52;;;;;;;;;;;20.90;72.00;;;;;;5091746;28;19912;-69
2023/07/23 10:38:20;;;;;;;;;;;20.90;72.10;;;;;;5091998;28;19969;-68
2023/07/23 10:40:47;;;;;;;;;;;20.90;71.90;;;;;;5091474;28;20447;-68
2023/07/23 10:43:13;;;;;;;;;;;21.00;72.00;;;;;;5092633;28;20006;-68
2023/07/23 10:45:39;;;;;;;;;;;21.00;72.00;;;;;;5090805;28;20024;-68
2023/07/23 10:48:04;;;;;;;;;;;21.10;72.40;;;;;;5091672;28;19912;-68
2023/07/23 10:50:33;;;;;;;;;;;21.00;72.10;;;;;;5072928;28;19916;-69
2023/07/23 10:53:00;;;;;;;;;;;21.10;72.20;;;;;;5108865;28;20437;-69
2023/07/23 10:55:35;;;;;;;;;;;21.10;72.10;;;;;;5097410;28;21750;-69
2023/07/23 10:58:02;;;;;;;;;;;21.10;72.30;;;;;;5091422;28;19918;-68
2023/07/23 11:00:30;;;;;;;;;;;21.10;72.30;;;;;;5091286;28;19954;-68
2023/07/23 11:02:56;;;;;;;;;;;21.10;72.80;;;;;;5107460;28;20621;-69
2023/07/23 11:05:21;;;;;;;;;;;21.10;72.50;;;;;;5093734;28;19916;-68
2023/07/23 11:08:05;;;;;;;;;;;21.20;72.60;;;;;;5091164;28;19916;-68
2023/07/23 11:10:44;;;;;;;;;;;21.20;72.70;;;;;;5090903;28;19916;-68
2023/07/23 11:13:10;;;;;;;;;;;21.20;72.70;;;;;;5100260;28;19930;-68
2023/07/23 11:15:36;;;;;;;;;;;21.20;72.80;;;;;;5098133;28;19912;-68
2023/07/23 11:18:02;;;;;;;;;;;21.30;72.70;;;;;;5092799;28;19916;-68
2023/07/23 11:20:27;;;;;;;;;;;21.30;73.40;;;;;;5111083;28;19918;-68
2023/07/23 11:22:53;;;;;;;;;;;21.30;72.90;;;;;;5111308;28;20016;-69
2023/07/23 11:25:18;;;;;;;;;;;21.30;72.90;;;;;;5095521;28;19973;-68
2023/07/23 11:27:44;;;;;;;;;;;21.40;72.90;;;;;;5090349;28;19920;-68
2023/07/23 11:30:12;;;;;;;;;;;21.40;73.20;;;;;;5105280;28;19926;-68
2023/07/23 11:32:38;;;;;;;;;;;21.40;73.80;;;;;;5110597;28;19912;-68
2023/07/23 11:35:03;;;;;;;;;;;21.50;73.30;;;;;;5096286;28;19908;-68
2023/07/23 11:37:30;;;;;;;;;;;21.50;73.40;;;;;;5090565;28;19918;-69
2023/07/23 11:39:55;;;;;;;;;;;21.50;73.10;;;;;;5090546;28;19982;-69
2023/07/23 11:42:21;;;;;;;;;;;21.50;73.50;;;;;;5095134;28;20361;-69
2023/07/23 11:44:59;;;;;;;;;;;21.50;74.30;;;;;;5085913;28;20398;-68
2023/07/23 11:47:25;;;;;;;;;;;21.40;73.60;;;;;;5090138;28;19954;-69
2023/07/23 11:49:50;;;;;;;;;;;21.40;73.90;;;;;;5090444;28;20007;-68
2023/07/23 11:52:21;;;;;;;;;;;21.40;74.20;;;;;;5090435;28;19916;-68
2023/07/23 11:54:47;;;;;;;;;;;21.40;74.30;;;;;;5088186;28;19920;-68
2023/07/23 11:57:12;;;;;;;;;;;21.30;74.40;;;;;;5089849;28;19916;-68
2023/07/23 11:59:39;;;;;;;;;;;21.30;74.30;;;;;;5089767;28;19943;-68
2023/07/23 12:02:05;;;;;;;;;;;21.30;74.40;;;;;;5090123;28;19918;-68
2023/07/23 12:04:36;;;;;;;;;;;21.30;74.40;;;;;;5090069;28;20006;-68
2023/07/23 12:07:02;;;;;;;;;;;21.30;74.40;;;;;;5089670;28;19935;-68
2023/07/23 12:09:28;;;;;;;;;;;21.30;74.60;;;;;;5089750;28;19916;-68
2023/07/23 12:11:53;;;;;;;;;;;21.20;74.80;;;;;;5092442;28;20644;-68
2023/07/23 12:14:19;;;;;;;;;;;21.20;75.00;;;;;;5070732;28;20608;-68
2023/07/23 12:16:49;;;;;;;;;;;21.20;74.90;;;;;;5089840;28;19922;-68
2023/07/23 12:19:15;;;;;;;;;;;21.20;75.00;;;;;;5086802;28;19919;-69
2023/07/23 12:21:41;;;;;;;;;;;21.20;74.80;;;;;;5089379;28;20007;-68
2023/07/23 12:24:20;;;;;;;;;;;21.20;75.00;;;;;;5089110;28;19938;-68
2023/07/23 12:26:53;;;;;;;;;;;21.20;75.00;;;;;;5087669;28;19923;-68
2023/07/23 12:29:20;;;;;;;;;;;21.30;75.10;;;;;;5089392;28;19916;-68
2023/07/23 12:31:46;;;;;;;;;;;21.30;75.50;;;;;;5070342;28;19919;-69
2023/07/23 12:34:12;;;;;;;;;;;21.30;75.00;;;;;;5086347;28;19949;-68
2023/07/23 12:36:38;;;;;;;;;;;21.30;75.00;;;;;;5088958;28;19988;-68
2023/07/23 12:39:04;;;;;;;;;;;21.30;75.10;;;;;;5089140;28;19965;-68
2023/07/23 12:41:29;;;;;;;;;;;21.30;75.00;;;;;;5091175;28;19919;-69
2023/07/23 12:43:55;;;;;;;;;;;21.30;75.70;;;;;;5086431;28;19916;-69
2023/07/23 12:46:20;;;;;;;;;;;21.30;75.80;;;;;;5087842;28;19937;-69
2023/07/23 12:48:46;;;;;;;;;;;21.30;76.30;;;;;;5089023;28;19923;-69
2023/07/23 12:51:12;;;;;;;;;;;21.30;75.70;;;;;;5088896;28;20552;-68
2023/07/23 12:53:38;;;;;;;;;;;21.20;75.50;;;;;;5089038;28;20006;-68
2023/07/23 12:56:03;;;;;;;;;;;21.30;76.20;;;;;;5092760;28;20060;-69
2023/07/23 12:58:29;;;;;;;;;;;21.30;76.50;;;;;;5109309;28;20696;-68
2023/07/23 13:00:54;;;;;;;;;;;21.30;75.80;;;;;;5105962;28;19912;-68
2023/07/23 13:03:20;;;;;;;;;;;21.30;76.80;;;;;;5108217;28;20575;-68
2023/07/23 13:05:45;;;;;;;;;;;21.30;75.90;;;;;;5088128;28;19908;-68
2023/07/23 13:08:11;;;;;;;;;;;21.30;75.70;;;;;;5088936;28;20604;-69
2023/07/23 13:10:36;;;;;;;;;;;21.30;76.70;;;;;;5100405;28;19965;-69
2023/07/23 13:13:02;;;;;;;;;;;21.40;76.20;;;;;;5103525;28;19912;-69
2023/07/23 13:15:27;;;;;;;;;;;21.30;76.00;;;;;;5088448;28;19912;-68
2023/07/23 13:17:53;;;;;;;;;;;21.40;76.40;;;;;;5085705;28;19912;-68
2023/07/23 13:20:18;;;;;;;;;;;21.30;78.00;;;;;;5078355;28;19960;-68
2023/07/23 13:22:44;;;;;;;;;;;21.30;76.60;;;;;;5078528;28;19916;-68
2023/07/23 13:25:09;;;;;;;;;;;21.30;76.40;;;;;;5091062;28;19920;-68
2023/07/23 13:27:35;;;;;;;;;;;21.30;76.50;;;;;;5088237;28;20281;-68
2023/07/23 13:30:03;;;;;;;;;;;21.30;76.50;;;;;;5087310;28;20447;-68
2023/07/23 13:32:28;;;;;;;;;;;21.30;76.50;;;;;;5088193;28;20356;-68
2023/07/23 13:34:54;;;;;;;;;;;21.30;76.40;;;;;;5087932;28;20002;-68
2023/07/23 13:37:19;;;;;;;;;;;21.30;76.30;;;;;;5087989;28;19916;-68
2023/07/23 13:39:46;;;;;;;;;;;21.30;76.90;;;;;;5087766;28;19915;-68
2023/07/23 13:42:11;;;;;;;;;;;21.40;76.40;;;;;;5094932;28;19941;-68
2023/07/23 13:44:37;;;;;;;;;;;21.40;76.30;;;;;;5087522;28;20503;-68
2023/07/23 13:47:02;;;;;;;;;;;21.50;76.50;;;;;;5087670;28;19912;-68
2023/07/23 13:49:28;;;;;;;;;;;21.50;76.20;;;;;;5087727;28;19955;-69
2023/07/23 13:51:53;;;;;;;;;;;21.60;76.30;;;;;;5101749;28;19920;-69
2023/07/23 13:54:19;;;;;;;;;;;21.70;76.60;;;;;;5101003;28;20672;-68
2023/07/23 13:56:44;;;;;;;;;;;21.70;76.80;;;;;;5087323;28;19965;-68
2023/07/23 13:59:11;;;;;;;;;;;21.80;76.10;;;;;;5087689;28;19912;-69
2023/07/23 14:01:37;;;;;;;;;;;21.80;76.00;;;;;;5087602;28;20087;-69
2023/07/23 14:04:02;;;;;;;;;;;21.90;76.10;;;;;;5088103;28;20288;-68
2023/07/23 14:06:28;;;;;;;;;;;21.90;76.20;;;;;;5069084;28;19913;-69
2023/07/23 14:08:53;;;;;;;;;;;21.90;76.20;;;;;;5087519;28;19916;-69
2023/07/23 14:11:19;;;;;;;;;;;21.90;76.30;;;;;;5088128;28;19958;-69